createdAt,value
2022-12-17T00:00:27.619Z,56.83
2022-12-17T00:05:48.288Z,53.40
2022-12-17T00:16:29.657Z,58.42
2022-12-17T00:22:00.751Z,56.15
2022-12-17T00:27:21.239Z,51.20
2022-12-17T00:32:41.787Z,53.92
2022-12-17T00:38:04.877Z,53.40
2022-12-17T00:43:30.332Z,48.15
2022-12-17T00:48:50.933Z,48.47
2022-12-17T00:54:12.310Z,55.55
2022-12-17T00:59:32.780Z,58.95
2022-12-17T01:04:53.231Z,61.55
2022-12-17T01:10:14.231Z,53.60
2022-12-17T01:20:55.004Z,36.25
2022-12-17T01:26:18.026Z,50.53
2022-12-17T01:31:38.351Z,50.42
2022-12-17T01:36:58.942Z,48.15
2022-12-17T01:42:19.234Z,50.55
2022-12-17T01:52:59.922Z,38.17
2022-12-17T01:58:20.452Z,54.10
2022-12-17T02:03:40.811Z,62.78
2022-12-17T02:09:10.847Z,46.75
2022-12-17T02:15:00.345Z,45.53
2022-12-17T02:20:58.151Z,45.37
2022-12-17T02:26:39.930Z,52.92
2022-12-17T02:32:04.645Z,45.33
2022-12-17T02:37:25.010Z,57.97
2022-12-17T02:42:45.889Z,70.43
2022-12-17T02:48:06.418Z,52.63
2022-12-17T02:53:26.953Z,50.45
2022-12-17T02:58:47.445Z,58.72
2022-12-17T03:04:07.796Z,58.95
2022-12-17T03:09:28.292Z,57.80
2022-12-17T03:14:48.782Z,47.97
2022-12-17T03:20:09.346Z,62.67
2022-12-17T03:25:29.770Z,53.92
2022-12-17T03:30:50.423Z,62.63
2022-12-17T03:36:14.971Z,58.40
2022-12-17T03:41:35.420Z,69.95
2022-12-17T03:46:55.885Z,61.55
2022-12-17T03:52:16.395Z,58.33
2022-12-17T03:57:36.749Z,52.47
2022-12-17T04:02:57.428Z,53.97
2022-12-17T04:08:17.806Z,50.00
2022-12-17T04:13:41.097Z,57.50
2022-12-17T04:19:01.718Z,53.38
2022-12-17T04:29:42.224Z,38.30
2022-12-17T04:35:02.730Z,55.08
2022-12-17T04:40:23.755Z,53.85
2022-12-17T04:45:44.419Z,57.08
2022-12-17T04:51:04.831Z,55.75
2022-12-17T04:56:25.225Z,51.70
2022-12-17T05:01:45.780Z,55.13
2022-12-17T05:07:06.084Z,68.72
2022-12-17T05:17:46.670Z,43.20
2022-12-17T05:23:07.380Z,49.15
2022-12-17T05:28:27.882Z,63.40
2022-12-17T05:33:48.346Z,61.80
2022-12-17T05:39:08.857Z,63.13
2022-12-17T05:44:29.218Z,59.38
2022-12-17T05:49:50.085Z,50.83
2022-12-17T05:55:10.653Z,64.03
2022-12-17T06:00:31.643Z,52.15
2022-12-17T06:05:51.808Z,50.08
2022-12-17T06:16:32.776Z,62.42
2022-12-17T06:21:53.125Z,60.00
2022-12-17T06:27:13.616Z,55.63
2022-12-17T06:32:34.200Z,49.33
2022-12-17T06:37:54.640Z,57.65
2022-12-17T06:43:16.152Z,52.35
2022-12-17T06:48:53.339Z,56.00
2022-12-17T06:54:13.894Z,52.40
2022-12-17T06:59:34.436Z,52.08
2022-12-17T07:04:55.074Z,59.75
2022-12-17T07:10:16.467Z,54.00
2022-12-17T07:15:36.870Z,58.70
2022-12-17T07:20:57.363Z,62.20
2022-12-17T07:26:17.805Z,55.08
2022-12-17T07:31:38.415Z,61.53
2022-12-17T07:36:58.722Z,59.20
2022-12-17T07:42:19.339Z,52.72
2022-12-17T07:47:39.792Z,64.78
2022-12-17T07:53:00.148Z,65.78
2022-12-17T07:58:23.178Z,68.93
2022-12-17T08:03:43.721Z,64.93
2022-12-17T08:09:04.131Z,64.32
2022-12-17T08:14:24.681Z,69.47
2022-12-17T08:19:45.104Z,57.65
2022-12-17T08:25:05.453Z,72.88
2022-12-17T08:30:26.703Z,63.47
2022-12-17T08:35:47.376Z,75.47
2022-12-17T08:41:07.772Z,74.97
2022-12-17T08:46:28.244Z,96.85
2022-12-17T08:51:48.338Z,82.25
2022-12-17T08:57:08.881Z,52.58
2022-12-17T09:02:34.066Z,64.75
2022-12-17T09:07:54.609Z,73.72
2022-12-17T09:13:15.106Z,67.97
2022-12-17T09:18:39.752Z,83.47
2022-12-17T09:24:00.186Z,66.47
2022-12-17T09:29:20.704Z,72.80
2022-12-17T09:34:41.042Z,77.18
2022-12-17T09:45:38.777Z,53.45
2022-12-17T09:50:59.212Z,65.47
2022-12-17T09:56:19.688Z,67.35
2022-12-17T10:01:53.122Z,69.70
2022-12-17T10:07:14.857Z,65.40
2022-12-17T10:12:38.353Z,74.28
2022-12-17T10:17:58.833Z,79.10
2022-12-17T10:23:19.244Z,84.18
2022-12-17T10:34:02.046Z,70.82
2022-12-17T10:39:22.642Z,68.25
2022-12-17T10:44:52.774Z,62.45
2022-12-17T10:50:17.715Z,54.30
2022-12-17T10:56:06.412Z,68.72
2022-12-17T11:01:31.752Z,75.80
2022-12-17T11:07:09.478Z,68.13
2022-12-17T11:18:11.412Z,65.45
2022-12-17T11:23:38.575Z,72.53
2022-12-17T11:28:59.791Z,74.85
2022-12-17T11:34:33.845Z,90.78
2022-12-17T11:39:54.198Z,79.45
2022-12-17T11:45:23.914Z,65.78
2022-12-17T11:50:52.646Z,56.28
2022-12-17T11:56:44.345Z,67.18
2022-12-17T12:02:35.655Z,69.63
2022-12-17T12:08:24.198Z,69.20
2022-12-17T12:13:56.575Z,102.05
2022-12-17T12:19:41.605Z,59.25
2022-12-17T12:25:23.601Z,54.45
2022-12-17T12:30:53.220Z,73.80
2022-12-17T12:36:18.036Z,57.93
2022-12-17T12:41:50.192Z,59.97
2022-12-17T12:47:17.334Z,58.10
2022-12-17T12:52:42.954Z,67.47
2022-12-17T12:58:25.059Z,69.22
2022-12-17T13:04:03.344Z,62.92
2022-12-17T13:09:32.317Z,66.40
2022-12-17T13:14:54.718Z,58.85
2022-12-17T13:20:20.430Z,69.80
2022-12-17T13:25:23.575Z,70.43
2022-12-17T13:30:36.473Z,95.82
2022-12-17T13:35:53.626Z,73.35
2022-12-17T13:41:14.935Z,64.63
2022-12-17T13:46:24.361Z,72.90
2022-12-17T13:51:30.745Z,56.50
2022-12-17T13:56:41.628Z,72.30
2022-12-17T14:01:53.004Z,78.22
2022-12-17T14:06:57.960Z,73.90
2022-12-17T14:12:22.051Z,78.55
2022-12-17T14:17:29.385Z,71.38
2022-12-17T14:22:52.380Z,79.68
2022-12-17T14:27:58.828Z,74.22
2022-12-17T14:33:00.635Z,84.65
2022-12-17T14:38:02.852Z,81.53
2022-12-17T14:43:04.752Z,85.25
2022-12-17T14:48:16.174Z,100.15
2022-12-17T14:53:26.637Z,75.28
2022-12-17T15:03:33.357Z,88.30
2022-12-17T15:08:39.884Z,167.38
2022-12-17T15:13:42.434Z,88.22
2022-12-17T15:18:44.217Z,75.60
2022-12-17T15:23:47.529Z,84.13
2022-12-17T15:28:49.256Z,88.82
2022-12-17T15:33:51.001Z,96.28
2022-12-17T15:38:52.762Z,82.60
2022-12-17T15:43:54.580Z,81.88
2022-12-17T15:48:57.089Z,78.55
2022-12-17T15:53:58.810Z,82.50
2022-12-17T15:59:00.696Z,76.88
2022-12-17T16:04:04.394Z,103.65
2022-12-17T16:09:06.143Z,78.65
2022-12-17T16:14:08.006Z,72.50
2022-12-17T16:19:10.555Z,76.70
2022-12-17T16:24:12.371Z,75.28
2022-12-17T16:29:14.434Z,77.93
2022-12-17T16:34:16.393Z,82.57
2022-12-17T16:39:19.254Z,106.13
2022-12-17T16:44:21.081Z,102.68
2022-12-17T16:49:23.954Z,81.28
2022-12-17T16:54:29.134Z,78.18
2022-12-17T16:59:31.009Z,107.82
2022-12-17T17:04:32.882Z,70.35
2022-12-17T17:09:34.702Z,81.45
2022-12-17T17:14:36.484Z,83.78
2022-12-17T17:19:38.263Z,80.07
2022-12-17T17:24:40.064Z,66.82
2022-12-17T17:29:42.035Z,96.65
2022-12-17T17:34:43.874Z,93.97
2022-12-17T17:39:46.206Z,96.05
2022-12-17T17:44:49.045Z,62.65
2022-12-17T17:49:50.809Z,70.00
2022-12-17T17:54:52.798Z,69.43
2022-12-17T17:59:54.520Z,73.10
2022-12-17T18:05:02.372Z,71.82
2022-12-17T18:10:06.806Z,63.17
2022-12-17T18:15:18.041Z,64.30
2022-12-17T18:20:20.265Z,66.43
2022-12-17T18:25:22.011Z,60.13
2022-12-17T18:30:23.788Z,63.70
2022-12-17T18:35:25.577Z,51.35
2022-12-17T18:40:32.948Z,57.03
2022-12-17T18:45:38.311Z,54.92
2022-12-17T18:50:40.336Z,61.50
2022-12-17T18:55:42.163Z,60.67
2022-12-17T19:00:44.297Z,61.50
2022-12-17T19:05:50.107Z,56.78
2022-12-17T19:10:54.406Z,61.25
2022-12-17T19:15:56.230Z,56.63
2022-12-17T19:20:58.642Z,62.90
2022-12-17T19:26:12.486Z,74.45
2022-12-17T19:31:15.245Z,70.97
2022-12-17T19:36:22.567Z,58.97
2022-12-17T19:41:28.254Z,45.30
2022-12-17T19:46:31.730Z,58.25
2022-12-17T19:51:33.926Z,60.05
2022-12-17T19:56:35.748Z,55.78
2022-12-17T20:01:46.525Z,62.15
2022-12-17T20:06:48.698Z,66.38
2022-12-17T20:11:50.488Z,56.45
2022-12-17T20:16:57.748Z,55.63
2022-12-17T20:22:02.228Z,57.72
2022-12-17T20:27:04.125Z,57.60
2022-12-17T20:32:06.598Z,64.60
2022-12-17T20:37:08.435Z,63.88
2022-12-17T20:42:10.490Z,57.60
2022-12-17T20:47:12.299Z,59.65
2022-12-17T20:52:14.161Z,71.05
2022-12-17T20:57:15.977Z,57.40
2022-12-17T21:02:17.950Z,70.35
2022-12-17T21:07:19.836Z,68.18
2022-12-17T21:12:21.708Z,55.35
2022-12-17T21:17:23.531Z,58.05
2022-12-17T21:22:25.421Z,66.60
2022-12-17T21:27:27.169Z,58.95
2022-12-17T21:32:33.644Z,69.85
2022-12-17T21:37:36.064Z,66.22
2022-12-17T21:42:56.229Z,76.45
2022-12-17T21:47:59.014Z,67.00
2022-12-17T21:53:00.794Z,53.42
2022-12-17T21:58:03.856Z,53.28
2022-12-17T22:03:05.784Z,57.25
2022-12-17T22:08:07.709Z,53.97
2022-12-17T22:13:29.670Z,51.97
2022-12-17T22:18:31.501Z,51.80
2022-12-17T22:23:33.288Z,59.75
2022-12-17T22:28:37.255Z,55.78
2022-12-17T22:33:40.355Z,54.15
2022-12-17T22:41:45.046Z,48.67
2022-12-17T22:44:51.633Z,42.05
2022-12-17T22:49:52.718Z,57.63
2022-12-17T22:54:55.175Z,43.85
2022-12-17T22:59:57.169Z,56.03
2022-12-17T23:04:59.241Z,60.92
2022-12-17T23:10:01.101Z,49.17
2022-12-17T23:15:02.923Z,49.53
2022-12-17T23:20:05.098Z,48.30
2022-12-17T23:25:07.417Z,53.33
2022-12-17T23:30:09.765Z,49.25
2022-12-17T23:35:12.358Z,43.97
2022-12-17T23:40:14.407Z,49.17
2022-12-17T23:45:16.226Z,51.90
2022-12-17T23:50:18.069Z,49.20
2022-12-17T23:55:19.846Z,42.97
